Time;durP1;ratioP1;P1;durP2;ratioP2;P2;SDS_P1;SDS_P2;PMS_P1;PMS_P2;Temp;Humidity;BMP_temperature;BMP_pressure;BME280_temperature;BME280_humidity;BME280_pressure;Samples;Min_cycle;Max_cycle;Signal;HPM_P1;HPM_P2
2021/09/05 00:02:02;;;;;;;11.90;9.23;;;14.80;99.90;;;;;;5108711;28;20253;-71
2021/09/05 00:04:30;;;;;;;9.77;8.10;;;14.80;99.90;;;;;;5109016;28;20209;-72
2021/09/05 00:06:57;;;;;;;8.90;8.00;;;14.70;99.90;;;;;;5108857;28;20255;-72
2021/09/05 00:09:23;;;;;;;11.23;9.10;;;14.70;99.90;;;;;;5108866;28;20252;-72
2021/09/05 00:11:50;;;;;;;12.67;9.33;;;14.80;99.90;;;;;;5109061;28;20275;-72
2021/09/05 00:14:17;;;;;;;11.87;8.73;;;14.70;99.90;;;;;;5108765;28;20255;-72
2021/09/05 00:16:43;;;;;;;9.80;8.73;;;14.70;99.90;;;;;;5108655;28;20577;-72
2021/09/05 00:19:10;;;;;;;10.77;9.10;;;14.70;99.90;;;;;;5108754;28;20264;-72
2021/09/05 00:21:38;;;;;;;11.77;9.10;;;14.70;99.90;;;;;;5108901;28;20218;-71
2021/09/05 00:24:05;;;;;;;10.90;9.40;;;14.70;99.90;;;;;;5108982;28;20227;-72
2021/09/05 00:26:32;;;;;;;10.20;9.13;;;14.70;99.90;;;;;;5108881;28;20206;-72
2021/09/05 00:28:59;;;;;;;11.33;9.50;;;14.70;99.90;;;;;;5108889;28;20249;-72
2021/09/05 00:31:25;;;;;;;10.30;9.10;;;14.70;99.90;;;;;;5108837;28;20206;-72
2021/09/05 00:33:52;;;;;;;10.90;8.93;;;14.50;99.90;;;;;;5108724;28;20210;-72
2021/09/05 00:36:19;;;;;;;11.17;8.70;;;14.50;99.90;;;;;;5108385;28;20285;-72
2021/09/05 00:38:47;;;;;;;15.60;8.70;;;14.50;99.90;;;;;;5108437;28;20230;-72
2021/09/05 00:41:14;;;;;;;9.00;8.13;;;14.50;99.90;;;;;;5108531;28;20251;-72
2021/09/05 00:43:55;;;;;;;9.57;8.00;;;14.50;99.90;;;;;;5108593;28;20226;-72
2021/09/05 00:46:21;;;;;;;9.63;8.73;;;14.50;99.90;;;;;;5108484;28;20248;-72
2021/09/05 00:48:48;;;;;;;11.50;8.63;;;14.50;99.90;;;;;;5111912;28;20279;-72
2021/09/05 00:51:15;;;;;;;9.60;8.50;;;14.50;99.90;;;;;;5112257;28;20255;-71
2021/09/05 00:53:42;;;;;;;15.77;8.93;;;14.50;99.90;;;;;;5112459;28;20290;-71
2021/09/05 00:56:11;;;;;;;12.47;8.63;;;14.50;99.90;;;;;;5111990;28;20234;-71
2021/09/05 00:58:38;;;;;;;12.23;9.20;;;14.40;99.90;;;;;;5112428;28;20599;-71
2021/09/05 01:01:05;;;;;;;9.87;8.87;;;14.40;99.90;;;;;;5112230;28;20206;-71
2021/09/05 01:03:31;;;;;;;12.73;9.40;;;14.40;99.90;;;;;;5112623;28;20202;-71
2021/09/05 01:05:58;;;;;;;10.47;9.03;;;14.40;99.90;;;;;;5111856;28;20661;-71
2021/09/05 01:08:26;;;;;;;10.77;9.13;;;14.40;99.90;;;;;;5112205;28;20234;-72
2021/09/05 01:10:53;;;;;;;10.50;9.27;;;14.40;99.90;;;;;;5111839;28;20707;-71
2021/09/05 01:13:21;;;;;;;10.20;9.00;;;14.40;99.90;;;;;;5111895;28;20201;-72
2021/09/05 01:15:47;;;;;;;10.07;9.00;;;14.30;99.90;;;;;;5112076;28;20263;-71
2021/09/05 01:18:14;;;;;;;10.37;9.07;;;14.30;99.90;;;;;;5111882;28;20588;-71
2021/09/05 01:20:40;;;;;;;14.27;10.50;;;14.30;99.90;;;;;;5111951;28;20298;-72
2021/09/05 01:23:07;;;;;;;11.13;9.00;;;14.30;99.90;;;;;;5111957;28;20248;-71
2021/09/05 01:25:34;;;;;;;13.37;10.80;;;14.30;99.90;;;;;;5111828;28;20206;-72
2021/09/05 01:28:02;;;;;;;11.53;10.43;;;14.30;99.90;;;;;;5111592;28;20656;-72
2021/09/05 01:30:28;;;;;;;12.53;9.80;;;14.20;99.90;;;;;;5111896;28;20210;-71
2021/09/05 01:32:55;;;;;;;13.30;10.67;;;14.20;99.90;;;;;;5112180;28;20210;-72
2021/09/05 01:35:22;;;;;;;13.37;10.57;;;14.20;99.90;;;;;;5111315;28;20206;-71
2021/09/05 01:37:48;;;;;;;12.23;9.80;;;14.20;99.90;;;;;;5111324;28;20622;-72
2021/09/05 01:40:15;;;;;;;13.67;10.17;;;14.20;99.90;;;;;;5111437;28;20252;-71
2021/09/05 01:42:41;;;;;;;15.77;10.70;;;14.20;99.90;;;;;;5111630;28;20281;-71
2021/09/05 01:45:10;;;;;;;15.73;10.67;;;14.20;99.90;;;;;;5111491;28;20306;-71
2021/09/05 01:47:37;;;;;;;12.13;9.50;;;14.20;99.90;;;;;;5111495;28;20210;-71
2021/09/05 01:50:04;;;;;;;12.50;10.53;;;14.20;99.90;;;;;;5111350;28;20213;-72
2021/09/05 01:52:31;;;;;;;17.03;11.50;;;14.10;99.90;;;;;;5111162;28;20885;-71
2021/09/05 01:54:57;;;;;;;11.90;9.87;;;14.10;99.90;;;;;;5111004;28;20250;-71
2021/09/05 01:57:24;;;;;;;12.03;10.70;;;14.10;99.90;;;;;;5111303;28;20228;-71
2021/09/05 01:59:52;;;;;;;11.00;9.63;;;14.10;99.90;;;;;;5110189;28;20230;-72
2021/09/05 02:02:20;;;;;;;11.17;9.80;;;14.10;99.90;;;;;;5111138;28;20263;-72
2021/09/05 02:04:46;;;;;;;13.50;10.17;;;14.00;99.90;;;;;;5111074;28;20684;-72
2021/09/05 02:07:13;;;;;;;15.47;10.40;;;14.10;99.90;;;;;;5110936;28;20720;-72
2021/09/05 02:09:39;;;;;;;11.13;9.80;;;14.00;99.90;;;;;;5111125;28;20225;-72
2021/09/05 02:12:07;;;;;;;13.13;9.83;;;14.00;99.90;;;;;;5111024;28;20210;-72
2021/09/05 02:14:33;;;;;;;13.60;10.43;;;14.00;99.90;;;;;;5111000;28;20242;-72
2021/09/05 02:17:00;;;;;;;11.97;9.70;;;14.00;99.90;;;;;;5110960;28;20278;-72
2021/09/05 02:19:29;;;;;;;13.47;9.80;;;14.00;99.90;;;;;;5110382;28;20225;-72
2021/09/05 02:21:55;;;;;;;13.33;10.10;;;14.00;99.90;;;;;;5110873;28;20297;-72
2021/09/05 02:24:22;;;;;;;11.77;9.37;;;13.90;99.90;;;;;;5110684;28;20509;-72
2021/09/05 02:26:48;;;;;;;11.50;10.30;;;13.90;99.90;;;;;;5110992;28;20245;-72
2021/09/05 02:29:15;;;;;;;13.73;10.13;;;13.90;99.90;;;;;;5110370;28;20770;-72
2021/09/05 02:31:42;;;;;;;12.47;9.50;;;13.90;99.90;;;;;;5110698;28;20259;-72
2021/09/05 02:34:08;;;;;;;12.97;11.20;;;13.90;99.90;;;;;;5110450;28;20240;-72
2021/09/05 02:36:36;;;;;;;13.00;10.30;;;13.80;99.90;;;;;;5110689;28;20206;-72
2021/09/05 02:39:04;;;;;;;12.73;10.73;;;13.80;99.90;;;;;;5110347;28;20242;-72
2021/09/05 02:41:31;;;;;;;11.50;10.30;;;13.80;99.90;;;;;;5110033;28;20226;-72
2021/09/05 02:43:57;;;;;;;10.87;9.77;;;13.80;99.90;;;;;;5110292;28;20206;-72
2021/09/05 02:46:24;;;;;;;11.70;10.50;;;13.80;99.90;;;;;;5110190;28;20210;-72
2021/09/05 02:48:50;;;;;;;14.80;11.07;;;13.80;99.90;;;;;;5110426;28;20206;-72
2021/09/05 02:51:17;;;;;;;11.47;9.47;;;13.80;99.90;;;;;;5110064;28;20210;-72
2021/09/05 02:53:45;;;;;;;13.67;10.47;;;13.80;99.90;;;;;;5109945;28;20695;-71
2021/09/05 02:56:12;;;;;;;12.30;9.93;;;13.80;99.90;;;;;;5109822;28;20238;-72
2021/09/05 02:58:39;;;;;;;10.77;9.70;;;13.80;99.90;;;;;;5110355;28;20202;-72
2021/09/05 03:01:06;;;;;;;11.40;9.97;;;13.80;99.90;;;;;;5109638;28;20699;-72
2021/09/05 03:03:32;;;;;;;11.97;9.93;;;13.80;99.90;;;;;;5110134;28;20206;-72
2021/09/05 03:05:59;;;;;;;11.07;9.47;;;13.80;99.90;;;;;;5109644;28;20206;-72
2021/09/05 03:08:26;;;;;;;14.93;10.23;;;13.80;99.90;;;;;;5109741;28;20233;-71
2021/09/05 03:10:54;;;;;;;13.87;10.23;;;13.80;99.90;;;;;;5109639;28;20259;-71
2021/09/05 03:13:20;;;;;;;11.77;9.83;;;13.80;99.90;;;;;;5109741;28;20206;-71
2021/09/05 03:15:47;;;;;;;12.63;10.40;;;13.80;99.90;;;;;;5109928;28;20230;-71
2021/09/05 03:18:14;;;;;;;12.17;10.00;;;13.80;99.90;;;;;;5109800;28;20206;-71
2021/09/05 03:20:40;;;;;;;11.53;9.73;;;13.80;99.90;;;;;;5109434;28;20327;-71
2021/09/05 03:23:07;;;;;;;11.60;10.03;;;13.80;99.90;;;;;;5109412;28;20246;-71
2021/09/05 03:25:34;;;;;;;12.90;10.37;;;13.80;99.90;;;;;;5109592;28;20234;-71
2021/09/05 03:28:02;;;;;;;11.47;10.23;;;13.90;99.90;;;;;;5106095;28;20672;-71
2021/09/05 03:30:28;;;;;;;11.33;9.27;;;13.80;99.90;;;;;;5108990;28;20210;-71
2021/09/05 03:32:55;;;;;;;10.53;9.43;;;13.80;99.90;;;;;;5109450;28;20266;-71
2021/09/05 03:35:21;;;;;;;11.37;9.53;;;13.90;99.90;;;;;;5109272;28;20202;-71
2021/09/05 03:37:48;;;;;;;11.13;9.70;;;13.80;99.90;;;;;;5109358;28;20286;-71
2021/09/05 03:40:15;;;;;;;13.57;10.83;;;13.80;99.90;;;;;;5109074;28;21077;-71
2021/09/05 03:42:42;;;;;;;14.63;11.17;;;13.90;99.90;;;;;;5109199;28;20225;-71
2021/09/05 03:45:11;;;;;;;14.30;11.30;;;13.90;99.90;;;;;;5109158;28;20225;-71
2021/09/05 03:47:38;;;;;;;13.23;11.47;;;13.90;99.90;;;;;;5109218;28;20267;-71
2021/09/05 03:50:05;;;;;;;13.30;10.93;;;13.90;99.90;;;;;;5109091;28;20241;-71
2021/09/05 03:52:33;;;;;;;13.97;11.67;;;13.90;99.90;;;;;;5109004;28;20210;-71
2021/09/05 03:55:00;;;;;;;14.37;11.87;;;13.90;99.90;;;;;;5108934;28;20310;-71
2021/09/05 03:57:27;;;;;;;16.10;11.87;;;13.90;99.90;;;;;;5109168;28;20253;-71
2021/09/05 03:59:53;;;;;;;15.53;12.37;;;14.00;99.90;;;;;;5108927;28;20226;-71
2021/09/05 04:02:21;;;;;;;17.53;11.40;;;14.00;99.90;;;;;;5108844;28;20201;-71
2021/09/05 04:04:48;;;;;;;17.30;12.50;;;14.00;99.90;;;;;;5109112;28;20262;-71
2021/09/05 04:07:18;;;;;;;17.03;12.47;;;14.00;99.90;;;;;;5108877;28;20206;-71
2021/09/05 04:12:29;;;;;;;18.80;12.30;;;14.00;99.90;;;;;;5108587;28;20386;-71
2021/09/05 04:14:55;;;;;;;16.03;12.67;;;14.10;99.90;;;;;;5108982;28;20252;-71
2021/09/05 04:17:23;;;;;;;16.67;12.57;;;14.10;99.90;;;;;;5108704;28;20247;-71
2021/09/05 04:19:50;;;;;;;17.73;12.57;;;14.10;99.90;;;;;;5108758;28;20238;-71
2021/09/05 04:22:16;;;;;;;16.63;12.83;;;14.10;99.90;;;;;;5108182;28;20206;-72
2021/09/05 04:24:43;;;;;;;16.67;13.10;;;14.10;99.90;;;;;;5108720;28;20270;-71
2021/09/05 04:27:10;;;;;;;18.33;13.63;;;14.10;99.90;;;;;;5108453;28;20213;-71
2021/09/05 04:29:36;;;;;;;16.50;13.10;;;14.10;99.90;;;;;;5108568;28;20210;-71
2021/09/05 04:32:03;;;;;;;19.00;13.20;;;14.10;99.90;;;;;;5108704;28;20262;-71
2021/09/05 04:34:31;;;;;;;19.57;13.40;;;14.20;99.90;;;;;;5108305;28;20640;-71
2021/09/05 04:36:58;;;;;;;14.73;12.43;;;14.20;99.90;;;;;;5108698;28;20202;-71
2021/09/05 04:39:25;;;;;;;16.87;13.07;;;14.20;99.90;;;;;;5108395;28;20721;-71
2021/09/05 04:41:51;;;;;;;14.90;12.93;;;14.20;99.90;;;;;;5108514;28;20226;-71
2021/09/05 04:44:18;;;;;;;15.53;12.93;;;14.20;99.90;;;;;;5108270;28;20265;-71
2021/09/05 04:46:44;;;;;;;15.20;12.47;;;14.20;99.90;;;;;;5108564;28;20206;-71
2021/09/05 04:49:12;;;;;;;16.70;12.63;;;14.20;99.90;;;;;;5108373;28;20640;-71
2021/09/05 04:51:40;;;;;;;17.43;13.17;;;14.20;99.90;;;;;;5108684;28;20263;-71
2021/09/05 04:54:06;;;;;;;17.47;13.63;;;14.20;99.90;;;;;;5108390;28;20206;-71
2021/09/05 04:56:33;;;;;;;17.30;12.47;;;14.20;99.90;;;;;;5068007;28;20264;-71
2021/09/05 04:58:59;;;;;;;17.13;12.77;;;14.20;99.90;;;;;;5067994;28;20662;-71
2021/09/05 05:01:26;;;;;;;15.80;13.20;;;14.20;99.90;;;;;;5067812;28;20293;-71
2021/09/05 05:03:53;;;;;;;19.33;13.00;;;14.30;99.90;;;;;;5067859;28;20269;-71
2021/09/05 05:06:19;;;;;;;17.73;12.90;;;14.30;99.90;;;;;;5067679;28;20252;-71
2021/09/05 05:08:47;;;;;;;21.67;14.40;;;14.30;99.90;;;;;;5067761;28;20235;-71
2021/09/05 05:11:16;;;;;;;16.97;13.50;;;14.30;99.90;;;;;;5067661;28;20203;-71
2021/09/05 05:13:42;;;;;;;19.77;14.67;;;14.30;99.90;;;;;;5067890;28;20544;-71
2021/09/05 05:16:09;;;;;;;22.00;15.10;;;14.30;99.90;;;;;;5067771;28;20246;-71
2021/09/05 05:18:35;;;;;;;22.30;15.53;;;14.30;99.90;;;;;;5067762;28;21012;-71
2021/09/05 05:21:02;;;;;;;23.50;16.87;;;14.30;99.90;;;;;;5067428;28;20277;-71
2021/09/05 05:23:29;;;;;;;28.90;17.30;;;14.30;99.90;;;;;;5067588;28;20608;-71
2021/09/05 05:25:57;;;;;;;25.43;17.70;;;14.40;99.90;;;;;;5067849;28;20200;-71
2021/09/05 05:28:24;;;;;;;23.03;17.43;;;14.30;99.90;;;;;;5067303;28;20703;-71
2021/09/05 05:30:50;;;;;;;24.43;17.97;;;14.40;99.90;;;;;;5067713;28;20235;-71
2021/09/05 05:33:17;;;;;;;25.77;17.83;;;14.40;99.90;;;;;;5067767;28;20211;-71
2021/09/05 05:35:44;;;;;;;25.63;17.73;;;14.40;99.90;;;;;;5070397;28;20212;-71
2021/09/05 05:38:10;;;;;;;25.60;17.57;;;14.40;99.90;;;;;;5071209;28;20297;-71
2021/09/05 05:40:37;;;;;;;28.63;18.47;;;14.40;99.90;;;;;;5070794;28;20230;-71
2021/09/05 05:43:05;;;;;;;28.60;18.77;;;14.50;99.90;;;;;;5071167;28;20211;-71
2021/09/05 05:45:31;;;;;;;23.27;16.83;;;14.50;99.90;;;;;;5070781;28;20223;-71
2021/09/05 05:47:58;;;;;;;25.17;18.00;;;14.50;99.90;;;;;;5071025;28;20268;-71
2021/09/05 05:50:25;;;;;;;24.90;16.97;;;14.50;99.90;;;;;;5070921;28;20207;-71
2021/09/05 05:52:52;;;;;;;24.77;17.00;;;14.50;99.90;;;;;;5070749;28;20298;-71
2021/09/05 05:55:19;;;;;;;23.43;16.77;;;14.50;99.90;;;;;;5090404;28;20602;-71
2021/09/05 05:57:46;;;;;;;24.23;17.10;;;14.60;99.90;;;;;;5111394;27;20238;-71
2021/09/05 06:00:15;;;;;;;23.00;17.00;;;14.60;99.90;;;;;;5111121;28;20278;-71
2021/09/05 06:02:41;;;;;;;20.50;16.53;;;14.50;99.90;;;;;;5111207;28;20346;-72
2021/09/05 06:05:09;;;;;;;22.37;17.27;;;14.60;99.90;;;;;;5111139;28;20282;-72
2021/09/05 06:07:36;;;;;;;22.43;16.17;;;14.60;99.90;;;;;;5111023;28;20228;-72
2021/09/05 06:10:03;;;;;;;21.77;15.63;;;14.60;99.90;;;;;;5111029;28;20206;-72
2021/09/05 06:12:29;;;;;;;21.40;15.87;;;14.70;99.90;;;;;;5111012;28;20206;-72
2021/09/05 06:14:56;;;;;;;19.93;15.40;;;14.70;99.90;;;;;;5110997;27;20242;-72
2021/09/05 06:17:24;;;;;;;20.87;14.73;;;14.70;99.90;;;;;;5110315;28;20664;-72
2021/09/05 06:19:50;;;;;;;18.33;13.93;;;14.70;99.90;;;;;;5110765;28;20267;-72
2021/09/05 06:22:17;;;;;;;17.03;14.73;;;14.80;99.90;;;;;;5110867;28;20267;-71
2021/09/05 06:24:43;;;;;;;18.87;14.47;;;14.80;99.90;;;;;;5110817;28;20206;-72
2021/09/05 06:27:10;;;;;;;18.00;13.50;;;14.80;99.90;;;;;;5110765;28;20214;-72
2021/09/05 06:29:37;;;;;;;16.93;13.77;;;14.90;99.90;;;;;;5110503;28;20206;-71
2021/09/05 06:32:04;;;;;;;15.83;13.43;;;14.90;99.90;;;;;;5110530;28;20202;-72
2021/09/05 06:34:33;;;;;;;14.87;13.37;;;14.90;99.90;;;;;;5110392;28;20210;-72
2021/09/05 06:36:59;;;;;;;14.97;12.83;;;14.90;99.90;;;;;;5110581;28;20255;-72
2021/09/05 06:39:26;;;;;;;16.20;13.03;;;14.90;99.90;;;;;;5110279;28;20618;-72
2021/09/05 06:41:53;;;;;;;13.90;11.77;;;14.90;99.90;;;;;;5110010;28;20672;-72
2021/09/05 06:44:19;;;;;;;14.80;11.60;;;15.00;99.90;;;;;;5110314;27;20218;-72
2021/09/05 06:46:46;;;;;;;14.83;12.27;;;15.00;99.90;;;;;;5110081;28;20241;-72
2021/09/05 06:49:12;;;;;;;14.73;10.87;;;15.00;99.90;;;;;;5110346;28;20206;-72
2021/09/05 06:51:40;;;;;;;15.70;11.37;;;15.00;99.90;;;;;;5109761;28;20688;-71
2021/09/05 06:54:07;;;;;;;14.27;11.07;;;15.10;99.90;;;;;;5110032;28;20230;-72
2021/09/05 06:56:34;;;;;;;14.77;10.70;;;15.10;99.90;;;;;;5110095;28;20209;-72
2021/09/05 06:59:00;;;;;;;12.40;10.23;;;15.10;99.90;;;;;;5110037;28;20205;-71
2021/09/05 07:01:27;;;;;;;13.90;10.87;;;15.10;99.90;;;;;;5109739;28;20342;-71
2021/09/05 07:03:53;;;;;;;13.97;11.13;;;15.10;99.90;;;;;;5109599;28;20244;-71
2021/09/05 07:06:20;;;;;;;14.17;10.43;;;15.10;99.90;;;;;;5109761;28;20206;-71
2021/09/05 07:08:48;;;;;;;11.67;10.47;;;15.10;99.90;;;;;;5109751;28;20202;-71
2021/09/05 07:11:15;;;;;;;11.70;10.07;;;15.10;99.90;;;;;;5109757;28;20221;-71
2021/09/05 07:13:41;;;;;;;14.47;10.90;;;15.20;99.90;;;;;;5109894;28;20208;-71
2021/09/05 07:16:08;;;;;;;11.37;9.93;;;15.20;99.90;;;;;;5109412;28;20228;-71
2021/09/05 07:18:35;;;;;;;12.13;10.43;;;15.20;99.90;;;;;;5109564;28;20209;-71
2021/09/05 07:21:01;;;;;;;11.97;9.97;;;15.30;99.90;;;;;;5109418;28;20237;-71
2021/09/05 07:23:28;;;;;;;14.57;10.80;;;15.30;99.90;;;;;;5109485;28;20206;-71
2021/09/05 07:25:57;;;;;;;12.47;10.07;;;15.40;99.90;;;;;;5109558;28;20198;-71
2021/09/05 07:28:23;;;;;;;12.53;10.63;;;15.50;99.90;;;;;;5109126;27;20729;-71
2021/09/05 07:30:50;;;;;;;11.20;10.00;;;15.50;99.90;;;;;;5109437;28;20224;-71
2021/09/05 07:33:16;;;;;;;12.50;10.20;;;15.60;99.90;;;;;;5109528;28;20246;-71
2021/09/05 07:35:43;;;;;;;12.93;11.17;;;15.60;99.90;;;;;;5109373;28;20213;-71
2021/09/05 07:38:10;;;;;;;11.83;10.57;;;15.60;99.90;;;;;;5109352;28;20209;-72
2021/09/05 07:40:36;;;;;;;16.30;12.73;;;15.60;99.90;;;;;;5108899;28;20275;-71
2021/09/05 07:43:07;;;;;;;15.57;11.63;;;15.70;99.90;;;;;;5109437;28;20202;-71
2021/09/05 07:45:34;;;;;;;13.03;10.60;;;15.70;99.90;;;;;;5108701;28;20196;-71
2021/09/05 07:48:00;;;;;;;13.10;11.40;;;15.80;99.90;;;;;;5109266;28;20237;-71
2021/09/05 07:50:27;;;;;;;13.23;10.10;;;15.80;99.90;;;;;;5108907;28;20230;-71
2021/09/05 07:52:54;;;;;;;11.63;9.87;;;15.90;99.90;;;;;;5109013;28;20242;-71
2021/09/05 07:55:20;;;;;;;10.93;9.70;;;16.00;99.90;;;;;;5108594;28;20230;-71
2021/09/05 07:57:47;;;;;;;10.83;9.60;;;16.10;99.90;;;;;;5108248;28;20263;-71
2021/09/05 08:00:16;;;;;;;12.50;9.63;;;16.10;99.90;;;;;;5109136;28;20264;-72
2021/09/05 08:02:43;;;;;;;12.57;10.40;;;16.20;99.90;;;;;;5108794;28;20298;-72
2021/09/05 08:05:11;;;;;;;12.80;10.20;;;16.20;99.90;;;;;;5108923;28;20377;-72
2021/09/05 08:07:37;;;;;;;12.93;9.43;;;16.30;99.90;;;;;;5108441;28;20206;-72
2021/09/05 08:10:05;;;;;;;10.10;9.10;;;16.40;99.90;;;;;;5108738;28;20209;-71
2021/09/05 08:12:31;;;;;;;13.93;10.00;;;16.50;99.90;;;;;;5108831;28;20210;-71
2021/09/05 08:14:58;;;;;;;11.07;9.23;;;16.60;99.90;;;;;;5108854;28;20202;-72
2021/09/05 08:17:27;;;;;;;9.47;8.60;;;16.60;99.90;;;;;;5108341;28;20247;-71
2021/09/05 08:19:53;;;;;;;13.37;9.30;;;16.70;99.90;;;;;;5108401;28;20731;-71
2021/09/05 08:22:20;;;;;;;13.37;9.50;;;16.70;99.90;;;;;;5108773;28;20226;-72
2021/09/05 08:24:47;;;;;;;10.70;8.93;;;16.80;99.90;;;;;;5108543;28;20206;-71
2021/09/05 08:27:14;;;;;;;10.60;8.80;;;16.80;99.90;;;;;;5109069;28;20259;-72
2021/09/05 08:29:41;;;;;;;12.73;8.80;;;16.90;99.90;;;;;;5108738;28;20244;-72
2021/09/05 08:32:08;;;;;;;11.07;8.83;;;17.00;99.90;;;;;;5108818;28;20205;-72
2021/09/05 08:34:36;;;;;;;9.67;8.73;;;17.00;99.90;;;;;;5108308;28;20228;-72
2021/09/05 08:37:03;;;;;;;11.00;8.17;;;17.00;99.90;;;;;;5108600;28;20213;-72
2021/09/05 08:39:30;;;;;;;10.37;9.10;;;17.00;99.90;;;;;;5108392;28;20206;-72
2021/09/05 08:41:58;;;;;;;11.90;9.00;;;17.10;99.90;;;;;;5108238;28;20613;-72
2021/09/05 08:44:25;;;;;;;9.80;8.33;;;17.10;99.90;;;;;;5107847;28;20645;-72
2021/09/05 08:46:53;;;;;;;9.83;8.37;;;17.10;99.90;;;;;;5108453;28;20206;-72
2021/09/05 08:49:25;;;;;;;12.40;9.33;;;17.10;99.90;;;;;;5108015;28;20749;-72
2021/09/05 08:51:53;;;;;;;10.43;9.20;;;17.20;99.90;;;;;;5107992;28;20603;-72
2021/09/05 08:54:20;;;;;;;10.77;9.67;;;17.30;99.90;;;;;;5108151;28;20286;-72
2021/09/05 08:56:48;;;;;;;10.27;8.57;;;17.40;99.90;;;;;;5108101;28;20669;-72
2021/09/05 08:59:15;;;;;;;9.27;8.33;;;17.40;99.90;;;;;;5108378;28;20263;-72
2021/09/05 09:01:52;;;;;;;9.20;8.30;;;17.40;99.90;;;;;;5108303;28;20257;-71
2021/09/05 09:04:19;;;;;;;11.93;8.60;;;17.40;99.90;;;;;;5108397;28;20280;-72
2021/09/05 09:06:45;;;;;;;11.20;8.93;;;17.50;99.90;;;;;;5108355;28;20259;-72
2021/09/05 09:09:14;;;;;;;9.77;8.00;;;17.50;99.90;;;;;;5110192;28;20218;-72
2021/09/05 09:11:51;;;;;;;16.23;9.17;;;17.60;99.90;;;;;;5111624;28;20566;-72
2021/09/05 09:14:19;;;;;;;10.70;9.07;;;17.70;99.90;;;;;;5111966;28;20202;-72
2021/09/05 09:16:46;;;;;;;11.67;7.97;;;17.80;99.90;;;;;;5111918;28;20610;-72
2021/09/05 09:19:27;;;;;;;9.60;8.00;;;17.80;99.90;;;;;;5111931;28;20218;-72
2021/09/05 09:21:54;;;;;;;11.50;7.53;;;17.90;99.90;;;;;;5111973;28;20234;-72
2021/09/05 09:24:23;;;;;;;8.53;7.57;;;18.00;99.90;;;;;;5111656;28;20635;-72
2021/09/05 09:27:02;;;;;;;11.00;8.13;;;18.10;99.90;;;;;;5111997;28;20237;-72
2021/09/05 09:29:29;;;;;;;9.33;8.43;;;18.10;99.90;;;;;;5112181;28;20247;-72
2021/09/05 09:32:01;;;;;;;10.23;8.00;;;18.20;99.90;;;;;;5111813;28;20247;-72
2021/09/05 09:34:28;;;;;;;8.97;8.07;;;18.20;99.90;;;;;;5111289;28;20569;-72
2021/09/05 09:36:59;;;;;;;11.43;8.47;;;18.30;99.90;;;;;;5111212;28;20198;-72
2021/09/05 09:39:29;;;;;;;9.80;8.33;;;18.30;99.90;;;;;;5111654;28;20198;-72
2021/09/05 09:41:56;;;;;;;11.57;8.73;;;18.40;99.90;;;;;;5111517;28;20230;-72
2021/09/05 09:44:28;;;;;;;11.87;8.90;;;18.40;99.90;;;;;;5111512;28;20222;-72
2021/09/05 09:47:07;;;;;;;10.47;8.53;;;18.50;99.90;;;;;;5111714;28;20189;-72
2021/09/05 09:49:47;;;;;;;15.53;9.37;;;18.50;99.90;;;;;;5111116;28;20669;-72
2021/09/05 09:52:15;;;;;;;11.27;8.70;;;18.50;99.90;;;;;;5111173;28;20195;-72
2021/09/05 09:54:43;;;;;;;9.03;8.00;;;18.60;99.90;;;;;;5110644;28;20249;-72
2021/09/05 09:57:10;;;;;;;10.60;8.93;;;18.60;99.90;;;;;;5111661;28;20631;-72
2021/09/05 09:59:37;;;;;;;12.97;8.23;;;18.60;99.90;;;;;;5111085;28;20202;-72
2021/09/05 10:02:05;;;;;;;10.70;8.47;;;18.60;99.90;;;;;;5111219;28;20601;-72
2021/09/05 10:04:32;;;;;;;12.47;8.50;;;18.60;99.90;;;;;;5110975;28;20198;-72
2021/09/05 10:07:00;;;;;;;12.53;9.00;;;18.60;99.90;;;;;;5111031;28;20206;-72
2021/09/05 10:09:29;;;;;;;10.73;8.60;;;18.60;99.90;;;;;;5110753;28;20234;-72
2021/09/05 10:11:57;;;;;;;10.30;8.57;;;18.50;99.90;;;;;;5110857;28;20206;-72
2021/09/05 10:14:24;;;;;;;11.90;9.00;;;18.60;99.90;;;;;;5110892;27;20202;-72
2021/09/05 10:16:51;;;;;;;10.77;8.50;;;18.60;99.90;;;;;;5110740;28;20246;-72
2021/09/05 10:19:18;;;;;;;10.23;9.13;;;18.60;99.90;;;;;;5110976;28;20230;-72
2021/09/05 10:21:45;;;;;;;12.00;8.93;;;18.70;99.90;;;;;;5109932;28;20225;-72
2021/09/05 10:24:15;;;;;;;11.63;8.70;;;18.70;99.90;;;;;;5110845;28;20255;-72
2021/09/05 10:27:02;;;;;;;12.80;8.83;;;18.80;99.90;;;;;;5110770;28;20231;-72
2021/09/05 10:29:29;;;;;;;10.03;9.00;;;18.80;99.90;;;;;;5110791;28;20194;-72
2021/09/05 10:31:56;;;;;;;9.17;7.90;;;19.00;99.90;;;;;;5110432;28;20672;-72
2021/09/05 10:34:34;;;;;;;11.10;8.77;;;19.20;99.90;;;;;;5110626;28;20251;-72
2021/09/05 10:37:05;;;;;;;10.93;8.80;;;19.30;99.90;;;;;;5110451;28;20267;-72
2021/09/05 10:39:32;;;;;;;9.63;8.63;;;19.30;99.90;;;;;;5110350;28;20276;-72
2021/09/05 10:41:59;;;;;;;11.50;8.83;;;19.30;99.90;;;;;;5110368;28;20321;-73
2021/09/05 10:44:27;;;;;;;11.23;9.73;;;19.30;99.90;;;;;;5110125;28;20222;-72
2021/09/05 10:46:55;;;;;;;11.10;9.90;;;19.30;99.90;;;;;;5110153;28;20725;-72
2021/09/05 10:49:37;;;;;;;11.90;10.07;;;19.40;99.90;;;;;;5110439;28;20205;-72
2021/09/05 10:52:04;;;;;;;14.27;10.00;;;19.60;99.90;;;;;;5110135;28;20660;-72
2021/09/05 10:54:31;;;;;;;12.47;10.17;;;19.70;99.90;;;;;;5109779;28;20758;-72
2021/09/05 10:56:59;;;;;;;12.23;9.80;;;20.00;99.90;;;;;;5110386;28;20213;-72
2021/09/05 10:59:35;;;;;;;11.63;10.30;;;20.20;99.90;;;;;;5110223;28;20214;-73
2021/09/05 11:02:02;;;;;;;10.70;9.60;;;20.40;99.90;;;;;;5110217;28;20221;-72
2021/09/05 11:04:43;;;;;;;10.37;9.30;;;20.50;99.90;;;;;;5110084;28;20232;-72
2021/09/05 11:07:12;;;;;;;9.97;8.47;;;20.60;99.90;;;;;;5109852;28;20721;-72
2021/09/05 11:09:47;;;;;;;11.30;9.10;;;20.60;99.90;;;;;;5109744;28;20241;-72
2021/09/05 11:12:21;;;;;;;11.67;10.47;;;20.70;99.90;;;;;;5110082;28;20250;-72
2021/09/05 11:15:14;;;;;;;15.13;9.40;;;20.70;99.90;;;;;;5109613;28;20194;-72
2021/09/05 11:17:41;;;;;;;12.07;8.90;;;20.60;99.90;;;;;;5108358;27;20202;-72
2021/09/05 11:20:09;;;;;;;11.03;9.63;;;20.50;99.90;;;;;;5109870;28;20253;-73
2021/09/05 11:22:38;;;;;;;11.90;8.97;;;20.40;99.90;;;;;;5109460;28;21004;-72
2021/09/05 11:25:23;;;;;;;10.07;9.07;;;20.30;99.90;;;;;;5109787;28;20610;-72
2021/09/05 11:27:56;;;;;;;11.83;9.47;;;20.20;99.90;;;;;;5109624;28;20198;-73
2021/09/05 11:30:26;;;;;;;10.17;9.17;;;20.10;99.90;;;;;;5109273;28;20205;-72
2021/09/05 11:33:01;;;;;;;14.20;10.47;;;20.10;99.90;;;;;;5109180;28;20572;-72
2021/09/05 11:35:28;;;;;;;9.73;8.73;;;20.10;99.90;;;;;;5109459;28;20652;-73
2021/09/05 11:37:56;;;;;;;10.10;8.57;;;20.20;99.90;;;;;;5109050;28;20788;-73
2021/09/05 11:40:23;;;;;;;10.67;9.57;;;20.50;99.90;;;;;;5109456;28;20224;-72
2021/09/05 11:42:51;;;;;;;10.50;9.40;;;20.60;99.90;;;;;;5109151;28;20234;-72
2021/09/05 11:45:20;;;;;;;11.03;9.17;;;20.80;99.90;;;;;;5109312;28;20463;-72
2021/09/05 11:47:58;;;;;;;11.47;8.53;;;20.80;99.90;;;;;;5109267;28;20206;-73
2021/09/05 11:50:25;;;;;;;10.43;8.90;;;20.80;99.90;;;;;;5109256;28;20194;-72
2021/09/05 11:52:52;;;;;;;12.53;8.83;;;20.80;99.90;;;;;;5109003;28;20549;-72
2021/09/05 11:55:20;;;;;;;9.90;8.53;;;20.70;99.90;;;;;;5108845;28;20318;-73
2021/09/05 11:57:55;;;;;;;10.63;9.00;;;20.70;99.90;;;;;;5108827;28;20206;-72
2021/09/05 12:00:34;;;;;;;9.47;8.43;;;20.80;99.90;;;;;;5109076;28;20262;-73
2021/09/05 12:03:04;;;;;;;10.33;9.00;;;21.00;99.90;;;;;;5108906;28;20225;-74
2021/09/05 12:05:31;;;;;;;10.43;9.17;;;21.10;99.90;;;;;;5109071;28;20243;-74
2021/09/05 12:07:58;;;;;;;9.83;8.57;;;21.10;99.90;;;;;;5108985;28;20229;-73
2021/09/05 12:10:26;;;;;;;10.97;9.80;;;21.10;99.90;;;;;;5108979;28;20238;-74
2021/09/05 12:13:01;;;;;;;10.10;9.03;;;21.30;99.90;;;;;;5108848;28;20263;-73
2021/09/05 12:15:32;;;;;;;12.23;9.33;;;21.50;99.90;;;;;;5108794;28;20201;-73
2021/09/05 12:17:59;;;;;;;11.53;10.33;;;21.70;99.90;;;;;;5108924;28;20225;-73
2021/09/05 12:20:40;;;;;;;10.50;9.50;;;21.90;99.90;;;;;;5108857;28;20242;-73
2021/09/05 12:23:19;;;;;;;11.65;10.45;;;22.00;99.90;;;;;;5108775;28;20221;-73
2021/09/05 12:25:45;;;;;;;10.33;9.33;;;22.00;99.90;;;;;;5108363;28;20191;-74
2021/09/05 12:28:12;;;;;;;10.73;9.63;;;21.90;99.90;;;;;;5108745;28;20231;-73
2021/09/05 12:30:41;;;;;;;10.15;9.05;;;21.80;99.90;;;;;;5108509;28;20206;-73
2021/09/05 12:33:10;;;;;;;10.07;9.10;;;21.90;99.90;;;;;;5108442;28;20202;-73
2021/09/05 12:35:40;;;;;;;11.90;9.50;;;22.10;99.90;;;;;;5108633;28;20263;-73
2021/09/05 12:38:12;;;;;;;10.87;9.87;;;22.10;99.90;;;;;;5108584;28;20212;-73
2021/09/05 12:40:41;;;;;;;10.43;9.35;;;22.20;99.90;;;;;;5108063;28;20236;-74